Time;durP1;ratioP1;P1;durP2;ratioP2;P2;SDS_P1;SDS_P2;PMS_P1;PMS_P2;Temp;Humidity;BMP_temperature;BMP_pressure;BME280_temperature;BME280_humidity;BME280_pressure;Samples;Min_cycle;Max_cycle;Signal;HPM_P1;HPM_P2
2021/03/10 00:00:11;;;;;;;25.40;14.37;;;;;;;;;;4390855;32;20190;-79
2021/03/10 00:02:42;;;;;;;24.40;13.67;;;;;;;;;;4389114;32;20192;-79
2021/03/10 00:05:12;;;;;;;24.53;13.33;;;;;;;;;;4389513;32;20610;-79
2021/03/10 00:07:41;;;;;;;21.37;12.93;;;;;;;;;;4389838;32;20593;-78
2021/03/10 00:10:08;;;;;;;22.97;12.50;;;;;;;;;;4389550;32;20217;-78
2021/03/10 00:12:34;;;;;;;24.27;13.77;;;;;;;;;;4388578;32;20501;-79
2021/03/10 00:14:59;;;;;;;20.17;12.03;;;;;;;;;;4389031;32;20217;-79
2021/03/10 00:17:28;;;;;;;17.97;10.97;;;;;;;;;;4390370;32;20155;-80
2021/03/10 00:19:54;;;;;;;19.37;11.17;;;;;;;;;;4388897;32;20580;-80
2021/03/10 00:22:20;;;;;;;22.33;12.10;;;;;;;;;;4390276;32;20193;-79
2021/03/10 00:24:50;;;;;;;21.47;11.43;;;;;;;;;;4389099;32;20196;-80
2021/03/10 00:27:34;;;;;;;20.27;11.07;;;;;;;;;;4390246;32;20182;-79
2021/03/10 00:30:04;;;;;;;20.00;11.87;;;;;;;;;;4390748;32;20146;-80
2021/03/10 00:32:30;;;;;;;23.23;11.97;;;;;;;;;;4388886;32;20202;-80
2021/03/10 00:34:56;;;;;;;19.93;11.23;;;;;;;;;;4388677;32;20235;-80
2021/03/10 00:37:22;;;;;;;19.53;11.13;;;;;;;;;;4388932;32;20192;-80
2021/03/10 00:39:57;;;;;;;24.63;12.00;;;;;;;;;;4388391;32;20227;-80
2021/03/10 00:42:24;;;;;;;20.87;11.80;;;;;;;;;;4389267;32;20177;-80
2021/03/10 00:44:50;;;;;;;18.73;11.53;;;;;;;;;;4388877;32;20210;-80
2021/03/10 00:47:17;;;;;;;22.00;12.37;;;;;;;;;;4390021;32;20189;-80
2021/03/10 00:49:43;;;;;;;21.63;12.47;;;;;;;;;;4391474;32;20158;-79
2021/03/10 00:52:08;;;;;;;23.43;13.17;;;;;;;;;;4405372;32;20172;-80
2021/03/10 00:54:37;;;;;;;26.20;13.87;;;;;;;;;;4391637;32;20539;-79
2021/03/10 00:57:04;;;;;;;20.57;12.50;;;;;;;;;;4405634;32;20203;-80
2021/03/10 00:59:36;;;;;;;27.97;14.33;;;;;;;;;;4391285;32;20181;-80
2021/03/10 01:02:03;;;;;;;26.83;15.00;;;;;;;;;;4403634;32;20192;-79
2021/03/10 01:04:28;;;;;;;32.67;15.17;;;;;;;;;;4390965;32;20574;-80
2021/03/10 01:06:55;;;;;;;29.90;16.00;;;;;;;;;;4390795;32;20166;-80
2021/03/10 01:09:26;;;;;;;32.47;16.60;;;;;;;;;;4410293;32;20169;-79
2021/03/10 01:11:53;;;;;;;30.60;16.17;;;;;;;;;;4396756;32;20190;-79
2021/03/10 01:14:19;;;;;;;30.90;16.50;;;;;;;;;;4410360;32;20540;-79
2021/03/10 01:16:47;;;;;;;35.20;17.93;;;;;;;;;;4409820;32;20169;-81
2021/03/10 01:19:13;;;;;;;33.83;16.30;;;;;;;;;;4396531;32;20169;-79
2021/03/10 01:21:41;;;;;;;34.13;17.53;;;;;;;;;;4382953;32;20584;-80
2021/03/10 01:24:07;;;;;;;33.23;18.33;;;;;;;;;;4396236;32;20158;-80
2021/03/10 01:26:32;;;;;;;38.80;18.43;;;;;;;;;;4396793;32;20165;-80
2021/03/10 01:28:57;;;;;;;33.53;17.70;;;;;;;;;;4395677;32;20227;-80
2021/03/10 01:31:22;;;;;;;43.00;18.43;;;;;;;;;;4410192;32;20174;-80
2021/03/10 01:33:48;;;;;;;37.00;17.80;;;;;;;;;;4409366;32;20196;-80
2021/03/10 01:36:20;;;;;;;40.27;18.07;;;;;;;;;;4410070;32;20192;-80
2021/03/10 01:38:46;;;;;;;36.90;17.20;;;;;;;;;;4396155;32;20196;-80
2021/03/10 01:41:12;;;;;;;33.37;17.10;;;;;;;;;;4409940;32;20583;-80
2021/03/10 01:43:38;;;;;;;36.33;17.63;;;;;;;;;;4409598;32;20195;-79
2021/03/10 01:46:07;;;;;;;35.07;17.80;;;;;;;;;;4409591;32;20209;-80
2021/03/10 01:48:33;;;;;;;36.10;17.37;;;;;;;;;;4409414;32;20617;-80
2021/03/10 01:51:01;;;;;;;34.23;16.77;;;;;;;;;;4409451;32;20179;-80
2021/03/10 01:53:27;;;;;;;33.10;17.13;;;;;;;;;;4395672;32;20246;-80
2021/03/10 01:55:54;;;;;;;33.80;16.63;;;;;;;;;;4396134;32;20189;-80
2021/03/10 01:58:25;;;;;;;41.40;18.00;;;;;;;;;;4395882;32;20217;-80
2021/03/10 02:00:56;;;;;;;35.67;18.30;;;;;;;;;;4396147;32;20198;-80
2021/03/10 02:03:22;;;;;;;34.23;17.67;;;;;;;;;;4408219;32;20170;-80
2021/03/10 02:05:50;;;;;;;37.90;18.30;;;;;;;;;;4395878;32;20204;-80
2021/03/10 02:08:27;;;;;;;38.13;17.80;;;;;;;;;;4395889;32;20173;-81
2021/03/10 02:11:05;;;;;;;39.60;19.07;;;;;;;;;;4409358;32;20502;-81
2021/03/10 02:13:35;;;;;;;35.97;18.83;;;;;;;;;;4409814;32;20340;-79
2021/03/10 02:16:10;;;;;;;38.87;19.20;;;;;;;;;;4396459;32;20213;-79
2021/03/10 02:18:41;;;;;;;34.90;17.93;;;;;;;;;;4395075;32;20238;-79
2021/03/10 02:21:45;;;;;;;40.73;20.07;;;;;;;;;;4393077;32;20219;-79
2021/03/10 02:24:29;;;;;;;41.80;18.13;;;;;;;;;;4348029;33;20224;-81
2021/03/10 02:27:02;;;;;;;43.97;20.37;;;;;;;;;;4360129;32;20162;-81
2021/03/10 02:29:28;;;;;;;46.83;20.47;;;;;;;;;;4389799;32;20184;-80
2021/03/10 02:31:55;;;;;;;42.13;20.03;;;;;;;;;;4406843;32;20540;-80
2021/03/10 02:34:20;;;;;;;41.73;20.10;;;;;;;;;;4407123;32;20590;-80
2021/03/10 02:36:50;;;;;;;50.07;21.20;;;;;;;;;;4405581;32;20188;-79
2021/03/10 02:39:16;;;;;;;58.07;23.63;;;;;;;;;;4407149;32;20141;-79
2021/03/10 02:41:43;;;;;;;52.83;23.47;;;;;;;;;;4407228;32;20162;-79
2021/03/10 02:44:11;;;;;;;61.53;25.20;;;;;;;;;;4392422;32;20193;-79
2021/03/10 02:46:45;;;;;;;57.33;23.80;;;;;;;;;;4406568;32;20146;-79
2021/03/10 02:49:15;;;;;;;64.13;25.57;;;;;;;;;;4406616;32;20684;-79
2021/03/10 02:51:41;;;;;;;53.73;24.17;;;;;;;;;;4393058;32;20267;-79
2021/03/10 02:54:06;;;;;;;55.77;24.40;;;;;;;;;;4392991;32;20189;-79
2021/03/10 02:56:33;;;;;;;53.53;24.57;;;;;;;;;;4407030;32;20427;-79
2021/03/10 02:59:01;;;;;;;65.17;26.90;;;;;;;;;;4380195;32;20177;-79
2021/03/10 03:01:26;;;;;;;57.77;24.93;;;;;;;;;;4393075;32;20238;-79
2021/03/10 03:03:52;;;;;;;64.53;27.17;;;;;;;;;;4405191;32;20595;-79
2021/03/10 03:06:17;;;;;;;58.30;25.07;;;;;;;;;;4406866;32;20548;-79
2021/03/10 03:08:42;;;;;;;65.47;26.20;;;;;;;;;;4393019;32;20508;-79
2021/03/10 03:11:10;;;;;;;58.17;25.23;;;;;;;;;;4392828;32;20530;-79
2021/03/10 03:13:39;;;;;;;57.70;25.10;;;;;;;;;;4392305;32;20169;-80
2021/03/10 03:16:06;;;;;;;61.93;26.37;;;;;;;;;;4392342;32;20217;-80
2021/03/10 03:18:31;;;;;;;65.17;25.77;;;;;;;;;;4392446;32;20161;-80
2021/03/10 03:21:00;;;;;;;67.23;27.50;;;;;;;;;;4392424;32;20162;-80
2021/03/10 03:23:26;;;;;;;62.73;26.93;;;;;;;;;;4406581;32;20172;-80
2021/03/10 03:25:52;;;;;;;61.57;27.63;;;;;;;;;;4392098;32;20158;-80
2021/03/10 03:28:27;;;;;;;72.53;28.13;;;;;;;;;;4392179;32;20177;-80
2021/03/10 03:30:54;;;;;;;68.40;26.63;;;;;;;;;;4405965;32;20150;-80
2021/03/10 03:33:27;;;;;;;66.50;28.20;;;;;;;;;;4406569;32;20162;-80
2021/03/10 03:35:54;;;;;;;71.80;27.60;;;;;;;;;;4392962;32;20166;-80
2021/03/10 03:38:23;;;;;;;71.67;28.27;;;;;;;;;;4391988;32;20158;-80
2021/03/10 03:40:52;;;;;;;62.17;27.00;;;;;;;;;;4392687;32;20162;-79
2021/03/10 03:43:22;;;;;;;69.30;28.83;;;;;;;;;;4392491;32;20166;-79
2021/03/10 03:45:47;;;;;;;58.40;24.73;;;;;;;;;;4391972;32;20225;-79
2021/03/10 03:48:16;;;;;;;61.80;24.90;;;;;;;;;;4392273;32;20166;-79
2021/03/10 03:50:41;;;;;;;60.00;25.63;;;;;;;;;;4406200;32;20166;-81
2021/03/10 03:53:13;;;;;;;66.43;27.80;;;;;;;;;;4391707;32;20158;-79
2021/03/10 03:55:38;;;;;;;66.50;26.97;;;;;;;;;;4406358;32;20121;-80
2021/03/10 03:58:03;;;;;;;56.53;24.90;;;;;;;;;;4391835;32;20481;-81
2021/03/10 04:00:29;;;;;;;61.27;26.27;;;;;;;;;;4405976;32;20157;-81
2021/03/10 04:02:54;;;;;;;57.73;24.93;;;;;;;;;;4391827;32;20519;-80
2021/03/10 04:05:20;;;;;;;60.33;25.80;;;;;;;;;;4405693;32;20255;-80
2021/03/10 04:07:50;;;;;;;71.37;28.07;;;;;;;;;;4392324;32;20219;-80
2021/03/10 04:10:16;;;;;;;58.33;26.47;;;;;;;;;;4392150;32;20196;-81
2021/03/10 04:12:47;;;;;;;63.63;25.90;;;;;;;;;;4405343;32;20129;-80
2021/03/10 04:15:15;;;;;;;68.10;27.23;;;;;;;;;;4405750;32;20134;-79
2021/03/10 04:17:49;;;;;;;72.20;28.60;;;;;;;;;;4391677;32;20260;-79
2021/03/10 04:20:15;;;;;;;72.37;30.27;;;;;;;;;;4391576;32;20162;-81
2021/03/10 04:22:41;;;;;;;74.67;29.87;;;;;;;;;;4392481;32;20228;-80
2021/03/10 04:25:11;;;;;;;79.37;31.53;;;;;;;;;;4405632;32;20141;-80
2021/03/10 04:27:37;;;;;;;74.83;30.67;;;;;;;;;;4406118;32;20178;-80
2021/03/10 04:30:05;;;;;;;78.13;31.43;;;;;;;;;;4378939;32;20181;-79
2021/03/10 04:32:34;;;;;;;94.40;34.07;;;;;;;;;;4404947;32;20193;-79
2021/03/10 04:34:59;;;;;;;69.97;31.23;;;;;;;;;;4391360;32;20587;-80
2021/03/10 04:37:27;;;;;;;79.77;31.53;;;;;;;;;;4391804;32;20240;-79
2021/03/10 04:39:53;;;;;;;86.23;34.97;;;;;;;;;;4391718;32;20170;-79
2021/03/10 04:42:18;;;;;;;85.70;34.67;;;;;;;;;;4404554;32;20196;-80
2021/03/10 04:44:43;;;;;;;84.23;36.23;;;;;;;;;;4405475;32;20438;-77
2021/03/10 04:47:12;;;;;;;97.43;37.37;;;;;;;;;;4391885;32;20609;-79
2021/03/10 04:49:37;;;;;;;87.27;36.80;;;;;;;;;;4405144;32;20230;-79
2021/03/10 04:52:02;;;;;;;88.57;36.60;;;;;;;;;;4391103;32;20510;-80
2021/03/10 04:54:27;;;;;;;94.70;37.47;;;;;;;;;;4404543;32;20498;-79
2021/03/10 04:56:53;;;;;;;83.63;37.67;;;;;;;;;;4404155;32;20294;-79
2021/03/10 04:59:21;;;;;;;93.77;39.07;;;;;;;;;;4403727;32;20474;-78
2021/03/10 05:01:46;;;;;;;84.10;37.90;;;;;;;;;;4390946;32;20189;-79
2021/03/10 05:04:12;;;;;;;97.23;40.37;;;;;;;;;;4391004;32;20158;-77
2021/03/10 05:06:37;;;;;;;85.40;37.83;;;;;;;;;;4390925;32;20664;-78
2021/03/10 05:09:04;;;;;;;102.60;42.60;;;;;;;;;;4391521;32;20571;-80
2021/03/10 05:11:29;;;;;;;93.43;39.50;;;;;;;;;;4391667;32;20591;-81
2021/03/10 05:13:54;;;;;;;95.78;41.85;;;;;;;;;;4391481;32;20193;-81
2021/03/10 05:16:19;;;;;;;82.80;38.20;;;;;;;;;;4405440;32;20598;-80
2021/03/10 05:18:45;;;;;;;105.60;42.20;;;;;;;;;;4405558;32;20195;-79
2021/03/10 05:21:11;;;;;;;86.93;38.43;;;;;;;;;;4405601;32;20166;-82
2021/03/10 05:23:37;;;;;;;91.77;39.70;;;;;;;;;;4404550;32;20423;-82
2021/03/10 05:26:02;;;;;;;86.13;37.50;;;;;;;;;;4404697;32;20141;-79
2021/03/10 05:28:28;;;;;;;94.73;40.03;;;;;;;;;;4390903;32;20173;-80
2021/03/10 05:30:53;;;;;;;106.30;44.00;;;;;;;;;;4404924;32;20566;-78
2021/03/10 05:33:18;;;;;;;81.57;37.33;;;;;;;;;;4404468;32;20134;-79
2021/03/10 05:35:47;;;;;;;89.53;39.17;;;;;;;;;;4391664;32;20215;-79
2021/03/10 05:38:12;;;;;;;90.63;39.23;;;;;;;;;;4390961;32;20161;-79
2021/03/10 05:40:37;;;;;;;79.60;38.60;;;;;;;;;;4403685;32;20253;-78
2021/03/10 05:43:10;;;;;;;85.47;39.93;;;;;;;;;;4405113;32;20200;-80
2021/03/10 05:45:36;;;;;;;80.73;36.20;;;;;;;;;;4390821;32;20161;-78
2021/03/10 05:48:05;;;;;;;76.87;38.00;;;;;;;;;;4403997;32;20605;-81
2021/03/10 05:50:33;;;;;;;90.37;39.20;;;;;;;;;;4404281;32;20162;-79
2021/03/10 05:53:08;;;;;;;78.43;38.13;;;;;;;;;;4390842;32;20193;-79
2021/03/10 05:55:42;;;;;;;84.53;37.73;;;;;;;;;;4407805;32;20145;-79
2021/03/10 05:58:08;;;;;;;76.23;35.07;;;;;;;;;;4393912;32;20170;-79
2021/03/10 06:00:33;;;;;;;86.13;37.97;;;;;;;;;;4393465;32;20520;-77
2021/03/10 06:02:59;;;;;;;77.73;37.77;;;;;;;;;;4393450;32;20182;-79
2021/03/10 06:05:30;;;;;;;82.43;38.60;;;;;;;;;;4408194;32;20137;-76
2021/03/10 06:08:01;;;;;;;79.07;37.13;;;;;;;;;;4407616;32;20172;-80
2021/03/10 06:10:36;;;;;;;84.67;37.00;;;;;;;;;;4393763;32;20615;-80
2021/03/10 06:13:01;;;;;;;71.53;34.60;;;;;;;;;;4408139;32;20137;-81
2021/03/10 06:15:26;;;;;;;76.97;35.63;;;;;;;;;;4406968;32;20612;-76
2021/03/10 06:17:52;;;;;;;72.60;34.70;;;;;;;;;;4393685;32;20165;-80
2021/03/10 06:20:23;;;;;;;75.10;34.47;;;;;;;;;;4406996;32;20196;-79
2021/03/10 06:22:48;;;;;;;73.90;33.17;;;;;;;;;;4393525;32;20256;-80
2021/03/10 06:25:13;;;;;;;73.93;35.23;;;;;;;;;;4392960;32;20172;-79
2021/03/10 06:27:50;;;;;;;71.07;33.50;;;;;;;;;;4393095;32;20235;-79
2021/03/10 06:30:15;;;;;;;74.47;33.80;;;;;;;;;;4407641;32;20142;-78
2021/03/10 06:32:44;;;;;;;73.17;34.80;;;;;;;;;;4392851;32;20627;-79
2021/03/10 06:35:09;;;;;;;67.97;33.40;;;;;;;;;;4392955;32;20189;-80
2021/03/10 06:37:37;;;;;;;67.80;32.77;;;;;;;;;;4392139;32;20495;-81
2021/03/10 06:40:21;;;;;;;71.87;33.47;;;;;;;;;;4407305;32;20185;-81
2021/03/10 06:42:53;;;;;;;67.40;31.97;;;;;;;;;;4407179;32;20548;-77
2021/03/10 06:45:30;;;;;;;68.57;33.60;;;;;;;;;;4392697;32;20169;-79
2021/03/10 06:47:55;;;;;;;72.27;33.03;;;;;;;;;;4406806;32;20193;-80
2021/03/10 06:50:21;;;;;;;65.83;32.27;;;;;;;;;;4392611;32;20209;-76
2021/03/10 06:52:50;;;;;;;65.47;32.10;;;;;;;;;;4392614;32;20254;-79
2021/03/10 06:55:16;;;;;;;64.53;31.40;;;;;;;;;;4380248;32;20170;-80
2021/03/10 06:57:42;;;;;;;63.60;31.50;;;;;;;;;;4392519;32;20177;-81
2021/03/10 07:00:18;;;;;;;65.17;30.90;;;;;;;;;;4406299;32;20138;-77
2021/03/10 07:02:44;;;;;;;64.90;31.23;;;;;;;;;;4406992;32;20141;-81
2021/03/10 07:05:09;;;;;;;66.23;31.83;;;;;;;;;;4392079;32;20170;-80
2021/03/10 07:07:35;;;;;;;63.70;32.07;;;;;;;;;;4405037;32;20166;-80
2021/03/10 07:10:00;;;;;;;58.93;29.83;;;;;;;;;;4392127;32;20202;-77
2021/03/10 07:12:26;;;;;;;58.77;29.97;;;;;;;;;;4404989;32;20165;-80
2021/03/10 07:14:51;;;;;;;63.13;30.93;;;;;;;;;;4393767;32;20503;-78
2021/03/10 07:17:18;;;;;;;66.30;32.03;;;;;;;;;;4392346;32;20229;-81
2021/03/10 07:19:45;;;;;;;66.17;31.20;;;;;;;;;;4392241;32;20159;-80
2021/03/10 07:22:10;;;;;;;62.33;30.43;;;;;;;;;;4392849;32;20197;-78
2021/03/10 07:24:40;;;;;;;64.20;30.30;;;;;;;;;;4391912;32;20219;-77
2021/03/10 07:27:06;;;;;;;65.30;31.73;;;;;;;;;;4391921;32;20274;-79
2021/03/10 07:29:40;;;;;;;65.07;31.90;;;;;;;;;;4405677;32;20233;-81
2021/03/10 07:32:07;;;;;;;67.07;31.50;;;;;;;;;;4392288;32;20174;-80
2021/03/10 07:34:34;;;;;;;61.70;30.70;;;;;;;;;;4391505;32;20628;-79
2021/03/10 07:36:59;;;;;;;60.07;28.67;;;;;;;;;;4391906;32;20591;-81
2021/03/10 07:39:31;;;;;;;60.97;30.37;;;;;;;;;;4406082;32;20138;-80
2021/03/10 07:42:09;;;;;;;62.47;29.87;;;;;;;;;;4405701;32;20137;-80
2021/03/10 07:44:36;;;;;;;59.90;29.43;;;;;;;;;;4392144;32;20161;-77
2021/03/10 07:47:16;;;;;;;63.97;29.47;;;;;;;;;;4391973;32;20158;-81
2021/03/10 07:49:41;;;;;;;62.87;30.30;;;;;;;;;;4392060;32;20205;-80
2021/03/10 07:52:07;;;;;;;60.63;28.97;;;;;;;;;;4405595;32;20591;-81
2021/03/10 07:54:43;;;;;;;61.80;29.50;;;;;;;;;;4407254;32;20122;-80
2021/03/10 07:57:10;;;;;;;66.77;30.30;;;;;;;;;;4391927;32;20180;-80
2021/03/10 07:59:38;;;;;;;59.43;30.23;;;;;;;;;;4390473;32;20312;-79
2021/03/10 08:02:08;;;;;;;62.47;30.37;;;;;;;;;;4376867;32;20162;-79
2021/03/10 08:04:51;;;;;;;60.57;28.07;;;;;;;;;;4390631;32;20139;-80
2021/03/10 08:07:20;;;;;;;62.30;28.13;;;;;;;;;;4403424;32;20166;-80
2021/03/10 08:09:52;;;;;;;57.83;28.17;;;;;;;;;;4379055;32;20745;-80
2021/03/10 08:12:18;;;;;;;58.57;28.13;;;;;;;;;;4405749;32;20160;-80
2021/03/10 08:14:51;;;;;;;55.00;28.20;;;;;;;;;;4391339;32;20473;-81
2021/03/10 08:17:40;;;;;;;59.67;27.07;;;;;;;;;;4404653;32;20138;-79
2021/03/10 08:20:12;;;;;;;58.27;28.57;;;;;;;;;;4383112;32;20254;-81
2021/03/10 08:22:40;;;;;;;55.80;27.43;;;;;;;;;;4405913;32;20515;-81
2021/03/10 08:25:14;;;;;;;57.40;27.37;;;;;;;;;;4405249;32;20184;-79
2021/03/10 08:27:40;;;;;;;58.20;26.67;;;;;;;;;;4392025;32;20200;-79
2021/03/10 08:30:07;;;;;;;57.00;27.60;;;;;;;;;;4391046;32;20180;-82
2021/03/10 08:32:33;;;;;;;51.60;26.50;;;;;;;;;;4391189;32;20264;-82
2021/03/10 08:35:12;;;;;;;52.83;25.70;;;;;;;;;;4405230;32;20524;-79
2021/03/10 08:37:51;;;;;;;51.70;26.43;;;;;;;;;;4405165;32;20150;-79
2021/03/10 08:40:22;;;;;;;53.03;26.97;;;;;;;;;;4405371;32;20165;-79
2021/03/10 08:42:48;;;;;;;53.70;26.37;;;;;;;;;;4391410;32;20485;-80
2021/03/10 08:45:26;;;;;;;50.50;26.30;;;;;;;;;;4405893;32;20188;-78
2021/03/10 08:48:02;;;;;;;54.20;27.60;;;;;;;;;;4404649;32;20179;-81
2021/03/10 08:50:28;;;;;;;50.43;25.47;;;;;;;;;;4391110;32;20196;-81
2021/03/10 08:52:54;;;;;;;57.77;25.77;;;;;;;;;;4404661;32;20172;-76
2021/03/10 08:55:26;;;;;;;49.47;26.50;;;;;;;;;;4404768;32;20134;-82
2021/03/10 08:57:52;;;;;;;48.30;25.53;;;;;;;;;;4404873;32;20307;-81
2021/03/10 09:00:22;;;;;;;51.93;25.47;;;;;;;;;;4405006;32;20134;-80
2021/03/10 09:02:50;;;;;;;50.10;24.63;;;;;;;;;;4405126;32;20631;-81
2021/03/10 09:05:16;;;;;;;51.50;25.73;;;;;;;;;;4405119;32;20165;-81
2021/03/10 09:07:45;;;;;;;48.20;25.20;;;;;;;;;;4390948;32;20201;-82
2021/03/10 09:10:16;;;;;;;52.20;25.60;;;;;;;;;;4391340;32;20138;-80
2021/03/10 09:12:42;;;;;;;53.10;25.77;;;;;;;;;;4390300;32;20181;-79
2021/03/10 09:15:20;;;;;;;49.97;24.17;;;;;;;;;;4390824;32;20174;-81
2021/03/10 09:17:51;;;;;;;47.30;23.23;;;;;;;;;;4391589;32;20170;-81
2021/03/10 09:20:25;;;;;;;43.40;22.67;;;;;;;;;;4405269;32;20606;-82
2021/03/10 09:22:50;;;;;;;39.20;21.90;;;;;;;;;;4378298;32;20584;-83
2021/03/10 09:25:16;;;;;;;90.77;28.63;;;;;;;;;;4404969;32;20154;-82
2021/03/10 09:27:42;;;;;;;42.77;21.23;;;;;;;;;;4391513;32;20203;-79
2021/03/10 09:30:12;;;;;;;49.97;21.87;;;;;;;;;;4377053;32;20617;-82
2021/03/10 09:32:43;;;;;;;34.73;19.00;;;;;;;;;;4392348;32;20146;-81
2021/03/10 09:35:27;;;;;;;37.27;21.10;;;;;;;;;;4378686;32;20169;-81
2021/03/10 09:37:56;;;;;;;45.10;21.43;;;;;;;;;;4392889;32;20264;-82
2021/03/10 09:40:38;;;;;;;33.47;19.00;;;;;;;;;;4392581;32;20626;-82
2021/03/10 09:43:28;;;;;;;41.20;21.30;;;;;;;;;;4378647;32;20158;-82
2021/03/10 09:46:12;;;;;;;39.70;20.53;;;;;;;;;;4393026;32;20176;-84
2021/03/10 09:48:43;;;;;;;34.70;20.43;;;;;;;;;;4386814;32;20154;-83
2021/03/10 09:51:10;;;;;;;36.80;18.93;;;;;;;;;;4396142;32;20170;-85
2021/03/10 09:53:56;;;;;;;;;;;;;;;;;;;;;
2021/03/10 09:56:27;;;;;;;33.67;18.80;;;;;;;;;;4416208;32;20173;-83
2021/03/10 09:58:54;;;;;;;34.53;18.13;;;;;;;;;;4422734;32;20150;-85
2021/03/10 10:01:28;;;;;;;37.43;17.83;;;;;;;;;;4408569;32;20174;-85
2021/03/10 10:04:07;;;;;;;35.42;17.67;;;;;;;;;;4400491;32;20176;-84
2021/03/10 10:06:47;;;;;;;32.67;17.43;;;;;;;;;;4408742;32;20165;-83
2021/03/10 10:09:22;;;;;;;30.47;15.97;;;;;;;;;;4422969;32;20163;-86
2021/03/10 10:12:03;;;;;;;32.77;18.03;;;;;;;;;;4398036;32;20185;-85
2021/03/10 10:14:31;;;;;;;31.13;16.73;;;;;;;;;;4392423;32;20156;-85
2021/03/10 10:16:57;;;;;;;29.23;16.30;;;;;;;;;;4391720;32;20146;-85
2021/03/10 10:19:27;;;;;;;30.10;16.37;;;;;;;;;;4392102;32;20150;-84
2021/03/10 10:21:56;;;;;;;28.00;14.87;;;;;;;;;;4390082;32;20163;-83
2021/03/10 10:24:43;;;;;;;28.43;15.97;;;;;;;;;;4389927;32;20201;-84
2021/03/10 10:27:09;;;;;;;29.10;16.07;;;;;;;;;;4390518;32;20511;-84
2021/03/10 10:29:37;;;;;;;31.67;17.03;;;;;;;;;;4390444;32;20197;-85
2021/03/10 10:32:08;;;;;;;27.73;15.03;;;;;;;;;;4391091;32;20276;-84
2021/03/10 10:34:40;;;;;;;29.27;15.77;;;;;;;;;;4390551;32;20184;-85
2021/03/10 10:37:10;;;;;;;26.87;14.47;;;;;;;;;;4393097;32;20181;-85
2021/03/10 10:39:43;;;;;;;35.67;17.07;;;;;;;;;;4392683;32;20177;-84
2021/03/10 10:42:34;;;;;;;;;;;;;;;;;;;;;
2021/03/10 10:44:59;;;;;;;31.87;16.30;;;;;;;;;;4407186;32;20200;-85
2021/03/10 10:47:26;;;;;;;27.53;15.10;;;;;;;;;;4392995;32;20157;-85
2021/03/10 10:49:56;;;;;;;26.33;14.03;;;;;;;;;;4407049;32;20126;-83
2021/03/10 10:52:37;;;;;;;28.38;15.02;;;;;;;;;;4403491;32;20162;-86
2021/03/10 10:55:13;;;;;;;29.37;15.75;;;;;;;;;;4389812;32;20186;-86
2021/03/10 10:57:38;;;;;;;25.08;14.27;;;;;;;;;;4390479;32;20516;-85
2021/03/10 11:00:20;;;;;;;27.00;14.40;;;;;;;;;;4390669;32;20166;-86
2021/03/10 11:03:14;;;;;;;25.62;14.18;;;;;;;;;;4390191;32;20170;-85
2021/03/10 11:05:39;;;;;;;29.65;14.55;;;;;;;;;;4390603;32;20631;-85
2021/03/10 11:08:16;;;;;;;23.80;13.00;;;;;;;;;;4389610;32;20166;-86
2021/03/10 11:10:41;;;;;;;25.60;13.45;;;;;;;;;;4390034;32;20224;-89
2021/03/10 11:13:15;;;;;;;26.90;14.33;;;;;;;;;;4393227;32;20162;-84
2021/03/10 11:15:44;;;;;;;23.48;13.15;;;;;;;;;;4393085;32;20264;-83
2021/03/10 11:18:11;;;;;;;27.73;16.35;;;;;;;;;;4390414;32;20165;-85
2021/03/10 11:20:36;;;;;;;29.50;14.25;;;;;;;;;;4391156;32;20192;-86
2021/03/10 11:23:03;;;;;;;25.08;13.27;;;;;;;;;;4390362;32;20170;-84
2021/03/10 11:25:55;;;;;;;27.50;13.98;;;;;;;;;;4390238;32;20158;-84
2021/03/10 11:28:30;;;;;;;25.35;13.18;;;;;;;;;;4386634;32;20706;-86
2021/03/10 11:31:10;;;;;;;24.90;13.95;;;;;;;;;;4392466;32;20134;-87
2021/03/10 11:33:41;;;;;;;23.52;13.52;;;;;;;;;;4392416;32;20138;-83
2021/03/10 11:36:10;;;;;;;32.53;14.38;;;;;;;;;;4390007;32;20204;-85
2021/03/10 11:38:47;;;;;;;28.33;14.95;;;;;;;;;;4389287;32;20204;-85
2021/03/10 11:41:12;;;;;;;25.23;13.00;;;;;;;;;;4389383;32;20181;-83
2021/03/10 11:43:38;;;;;;;25.12;13.20;;;;;;;;;;4389236;32;20186;-81
2021/03/10 11:46:03;;;;;;;27.33;14.32;;;;;;;;;;4389384;32;20637;-84
2021/03/10 11:48:37;;;;;;;23.85;13.35;;;;;;;;;;4389392;32;20189;-84
2021/03/10 11:51:04;;;;;;;23.90;14.02;;;;;;;;;;4389711;32;20158;-82
2021/03/10 11:53:34;;;;;;;24.08;13.65;;;;;;;;;;4379758;32;20233;-84
2021/03/10 11:56:09;;;;;;;25.55;13.20;;;;;;;;;;4400264;32;20161;-83
2021/03/10 11:58:42;;;;;;;23.77;13.30;;;;;;;;;;4390880;32;20218;-85
2021/03/10 12:01:11;;;;;;;27.58;14.05;;;;;;;;;;4373521;32;20568;-85
2021/03/10 12:03:39;;;;;;;24.40;13.27;;;;;;;;;;4369203;32;20235;-87
2021/03/10 12:06:05;;;;;;;22.23;13.62;;;;;;;;;;4348079;32;20232;-88
2021/03/10 12:08:30;;;;;;;25.48;13.70;;;;;;;;;;4373180;32;20573;-87
2021/03/10 12:10:59;;;;;;;24.98;13.68;;;;;;;;;;4360807;32;20163;-86
2021/03/10 12:13:30;;;;;;;27.10;14.05;;;;;;;;;;4360506;32;20185;-87
2021/03/10 12:15:59;;;;;;;25.35;14.20;;;;;;;;;;4372882;32;20209;-87
2021/03/10 12:18:34;;;;;;;27.52;14.23;;;;;;;;;;4373449;32;20525;-84
2021/03/10 12:21:09;;;;;;;25.42;14.63;;;;;;;;;;4360930;32;20196;-85
2021/03/10 12:23:40;;;;;;;21.10;12.52;;;;;;;;;;4373006;32;20158;-85
2021/03/10 12:26:05;;;;;;;27.07;14.13;;;;;;;;;;4385653;32;20603;-87
2021/03/10 12:28:34;;;;;;;26.33;16.05;;;;;;;;;;4391030;32;20271;-86
2021/03/10 12:31:05;;;;;;;25.65;14.70;;;;;;;;;;4391289;32;20188;-84
2021/03/10 12:33:35;;;;;;;27.80;13.18;;;;;;;;;;4405243;32;20133;-85
2021/03/10 12:36:00;;;;;;;26.35;14.93;;;;;;;;;;4379125;32;20188;-87
2021/03/10 12:38:34;;;;;;;26.00;13.50;;;;;;;;;;4391139;32;20165;-83
2021/03/10 12:41:06;;;;;;;26.83;15.00;;;;;;;;;;4383293;32;20180;-86
2021/03/10 12:43:34;;;;;;;26.80;14.90;;;;;;;;;;4391436;32;20643;-84
2021/03/10 12:46:19;;;;;;;25.60;13.43;;;;;;;;;;4391121;32;20185;-85
2021/03/10 12:48:49;;;;;;;26.47;14.73;;;;;;;;;;4390978;32;20192;-83
2021/03/10 12:51:14;;;;;;;25.70;14.48;;;;;;;;;;4390999;32;20162;-84
2021/03/10 12:53:46;;;;;;;25.55;13.60;;;;;;;;;;4391022;32;20227;-84
2021/03/10 12:56:15;;;;;;;25.67;14.40;;;;;;;;;;4388299;32;20251;-86
2021/03/10 12:58:41;;;;;;;23.62;13.60;;;;;;;;;;4388405;32;20233;-84
2021/03/10 13:01:39;;;;;;;21.58;12.75;;;;;;;;;;4376932;32;20162;-86
2021/03/10 13:04:27;;;;;;;26.55;13.27;;;;;;;;;;4388895;32;20196;-85
2021/03/10 13:07:05;;;;;;;22.37;12.82;;;;;;;;;;4376722;32;20195;-83
2021/03/10 13:09:30;;;;;;;22.70;13.10;;;;;;;;;;4377059;32;20170;-86
2021/03/10 13:12:29;;;;;;;;;;;;;;;;;;;;;
2021/03/10 13:14:58;;;;;;;20.95;12.18;;;;;;;;;;4390038;32;20138;-83
2021/03/10 13:17:30;;;;;;;21.25;12.75;;;;;;;;;;4375952;32;20192;-77
2021/03/10 13:20:02;;;;;;;22.80;12.37;;;;;;;;;;4375046;32;20240;-85
2021/03/10 13:22:28;;;;;;;29.48;13.98;;;;;;;;;;4382624;32;20170;-84
2021/03/10 13:24:54;;;;;;;21.73;13.18;;;;;;;;;;4369330;32;20190;-84
2021/03/10 13:27:19;;;;;;;26.65;13.43;;;;;;;;;;4381946;32;20223;-84
2021/03/10 13:29:55;;;;;;;20.00;11.57;;;;;;;;;;4377791;32;20162;-84
2021/03/10 13:32:20;;;;;;;23.42;13.25;;;;;;;;;;4376417;32;20205;-85
2021/03/10 13:34:45;;;;;;;27.62;12.93;;;;;;;;;;4389383;32;20572;-83
2021/03/10 13:37:11;;;;;;;21.75;12.57;;;;;;;;;;4389686;32;20203;-84
2021/03/10 13:39:36;;;;;;;26.00;14.20;;;;;;;;;;4388119;32;20595;-84
2021/03/10 13:42:04;;;;;;;24.05;13.23;;;;;;;;;;4388502;32;20504;-85
2021/03/10 13:44:29;;;;;;;22.45;13.23;;;;;;;;;;4388904;32;20169;-83
2021/03/10 13:46:56;;;;;;;25.40;14.25;;;;;;;;;;4388447;32;20221;-83
2021/03/10 13:49:21;;;;;;;26.40;14.93;;;;;;;;;;4388648;32;20198;-84
2021/03/10 13:51:49;;;;;;;26.10;13.85;;;;;;;;;;4388856;32;20192;-84
2021/03/10 13:54:17;;;;;;;22.62;12.95;;;;;;;;;;4390173;32;20182;-85
2021/03/10 13:56:48;;;;;;;25.50;13.65;;;;;;;;;;4379718;32;20545;-85
2021/03/10 13:59:19;;;;;;;25.17;12.73;;;;;;;;;;4375390;32;20472;-84
2021/03/10 14:01:54;;;;;;;25.45;14.27;;;;;;;;;;4375542;32;20220;-85
2021/03/10 14:04:23;;;;;;;23.98;12.88;;;;;;;;;;4387919;32;20222;-82
2021/03/10 14:06:49;;;;;;;29.30;14.87;;;;;;;;;;4391337;32;20185;-84
2021/03/10 14:09:14;;;;;;;36.90;15.23;;;;;;;;;;4404369;32;20142;-84
2021/03/10 14:11:40;;;;;;;25.35;13.18;;;;;;;;;;4390042;32;20166;-82
2021/03/10 14:14:05;;;;;;;25.30;13.40;;;;;;;;;;4390026;32;20170;-83
2021/03/10 14:16:30;;;;;;;27.55;13.45;;;;;;;;;;4406678;32;20177;-84
2021/03/10 14:19:05;;;;;;;23.20;12.30;;;;;;;;;;4388961;32;20502;-84
2021/03/10 14:21:30;;;;;;;23.92;11.88;;;;;;;;;;4377691;32;20154;-84
2021/03/10 14:23:57;;;;;;;24.52;13.40;;;;;;;;;;4391814;32;20138;-85
2021/03/10 14:26:25;;;;;;;26.58;13.43;;;;;;;;;;4377596;32;20162;-84
2021/03/10 14:28:51;;;;;;;23.58;12.88;;;;;;;;;;4388390;32;20306;-83
2021/03/10 14:31:16;;;;;;;27.98;13.00;;;;;;;;;;4406699;32;20161;-84
2021/03/10 14:33:47;;;;;;;25.77;13.90;;;;;;;;;;4393236;32;20192;-85